Jenkins, Texas
Current Conditions -  °F | °C
As of 11:55 PM on Tuesday 21 Oct 2014 (Local Time) from KOSA Reporting Station
Clear Clear  
Wind Chill: 61°   Ceiling: Unl
Heat Index: 61°   Visibility: 2mi
Dew Point: 61°   Wind: 3mph
Humidity: 99%   Direction: 50°NE
Pressure: 30.09"   Gusts: NA
Location:  33.0336°N, 94.7384°W
Report Text: KOSA 220455Z AUTO 05003KT 2SM CLR 16/16 A3009 RMK AO1 T01600159
Loading
Personal Weather Stations






























Interactive Weather Map
Tropical Storm Tracking
New forecast layout! Learn more

10-Day Weather Forecast

Advertisements
Track Severe Weather on mobile